createdAt,value
2017-10-24T00:13:54.066Z,1013.77
2017-10-24T00:23:51.966Z,1013.64
2017-10-24T00:33:53.977Z,1013.64
2017-10-24T00:43:49.945Z,1013.64
2017-10-24T01:13:50.034Z,1013.66
2017-10-24T01:23:52.026Z,1013.74
2017-10-24T01:43:55.027Z,1013.64
2017-10-24T01:53:50.995Z,1013.69
2017-10-24T02:03:51.985Z,1013.71
2017-10-24T02:13:49.992Z,1013.63
2017-10-24T02:23:50.075Z,1013.54
2017-10-24T02:33:50.027Z,1013.64
2017-10-24T02:43:55.409Z,1013.52
2017-10-24T02:53:52.096Z,1013.45
2017-10-24T03:03:53.586Z,1013.49
2017-10-24T03:13:50.069Z,1013.49
2017-10-24T03:23:54.938Z,1013.54
2017-10-24T03:33:50.090Z,1013.44
2017-10-24T03:53:53.795Z,1013.35
2017-10-24T04:03:50.179Z,1013.32
2017-10-24T04:13:53.321Z,1013.32
2017-10-24T04:33:52.216Z,1013.19
2017-10-24T04:43:52.174Z,1013.27
2017-10-24T05:03:50.140Z,1013.11
2017-10-24T05:13:51.235Z,1013.05
2017-10-24T05:23:51.204Z,1012.92
2017-10-24T05:33:53.778Z,1013.09
2017-10-24T05:53:52.193Z,1013.17
2017-10-24T06:13:54.758Z,1013.15
2017-10-24T06:23:51.267Z,1013.29
2017-10-24T06:33:56.032Z,1013.28
2017-10-24T06:43:50.272Z,1013.36
2017-10-24T06:53:50.330Z,1013.57
2017-10-24T07:03:52.359Z,1013.47
2017-10-24T07:13:50.349Z,1013.48
2017-10-24T07:23:51.343Z,1013.63
2017-10-24T07:33:50.391Z,1013.51
2017-10-24T07:43:50.650Z,1013.44
2017-10-24T07:53:52.349Z,1013.6
2017-10-24T08:13:52.366Z,1013.54
2017-10-24T08:23:50.378Z,1013.49
2017-10-24T08:33:50.327Z,1013.53
2017-10-24T08:43:50.433Z,1013.48
2017-10-24T08:53:50.367Z,1013.57
2017-10-24T09:03:50.757Z,1013.53
2017-10-24T09:13:50.358Z,1013.47
2017-10-24T09:23:50.381Z,1013.65
2017-10-24T09:33:50.387Z,1013.52
2017-10-24T09:43:50.392Z,1013.56
2017-10-24T09:53:50.414Z,1013.68
2017-10-24T10:03:50.428Z,1013.84
2017-10-24T10:13:50.453Z,1013.66
2017-10-24T10:23:50.441Z,1013.47
2017-10-24T10:33:50.859Z,1013.4
2017-10-24T10:43:50.763Z,1013.35
2017-10-24T10:53:50.458Z,1013.15
2017-10-24T11:03:50.487Z,1012.99
2017-10-24T11:13:50.479Z,1012.88
2017-10-24T11:23:50.487Z,1012.99
2017-10-24T11:33:50.502Z,1013.03
2017-10-24T11:43:50.513Z,1012.94
2017-10-24T11:53:50.528Z,1012.8
2017-10-24T12:03:50.541Z,1012.85
2017-10-24T12:13:50.544Z,1012.86
2017-10-24T12:23:50.544Z,1012.84
2017-10-24T12:33:50.661Z,1012.76
2017-10-24T12:43:50.576Z,1012.75
2017-10-24T12:53:50.598Z,1012.71
2017-10-24T13:03:50.589Z,1012.65
2017-10-24T13:13:50.612Z,1012.52
2017-10-24T13:23:50.640Z,1012.61
2017-10-24T13:33:50.698Z,1012.54
2017-10-24T13:43:50.775Z,1012.41
2017-10-24T13:53:50.725Z,1012.5
2017-10-24T14:03:50.682Z,1012.54
2017-10-24T14:13:50.762Z,1012.51
2017-10-24T14:23:50.943Z,1012.59
2017-10-24T14:33:50.973Z,1012.56
2017-10-24T14:43:50.878Z,1012.53
2017-10-24T14:53:50.895Z,1012.44
2017-10-24T15:03:50.914Z,1012.37
2017-10-24T15:13:50.852Z,1012.33
2017-10-24T15:23:50.784Z,1012.43
2017-10-24T15:33:50.867Z,1012.3
2017-10-24T15:43:50.814Z,1012.38
2017-10-24T15:53:50.882Z,1012.44
2017-10-24T16:03:50.817Z,1012.36
2017-10-24T16:13:50.893Z,1012.39
2017-10-24T16:23:50.866Z,1012.28
2017-10-24T16:33:50.934Z,1012.25
2017-10-24T16:43:50.866Z,1012.28
2017-10-24T16:53:50.906Z,1012.29
2017-10-24T17:03:51.014Z,1012.42
2017-10-24T17:13:50.899Z,1012.4
2017-10-24T17:23:50.858Z,1012.49
2017-10-24T17:33:50.985Z,1012.43
2017-10-24T17:43:50.906Z,1012.5
2017-10-24T17:53:50.894Z,1012.47
2017-10-24T18:03:50.914Z,1012.54
2017-10-24T18:13:50.909Z,1012.47
2017-10-24T18:23:50.909Z,1012.38
2017-10-24T18:33:50.914Z,1012.28
2017-10-24T18:43:50.931Z,1012.34
2017-10-24T18:53:50.979Z,1012.25
2017-10-24T19:03:51.041Z,1012.15
2017-10-24T19:13:50.953Z,1012.13
2017-10-24T19:23:50.992Z,1012.09
2017-10-24T19:33:51.021Z,1012.17
2017-10-24T19:43:51.117Z,1012.14
2017-10-24T19:53:51.115Z,1012.18
2017-10-24T20:03:51.107Z,1012.3
2017-10-24T20:13:52.104Z,1012.38
2017-10-24T20:23:51.222Z,1012.35
2017-10-24T20:33:51.098Z,1012.39
2017-10-24T20:43:51.239Z,1012.36
2017-10-24T20:53:51.161Z,1012.34
2017-10-24T21:03:51.139Z,1012.44
2017-10-24T21:13:51.204Z,1012.43
2017-10-24T21:23:51.204Z,1012.42
2017-10-24T21:33:51.233Z,1012.41
2017-10-24T21:43:51.168Z,1012.29
2017-10-24T21:53:51.235Z,1012.32
2017-10-24T22:03:51.218Z,1012.26
2017-10-24T22:13:51.208Z,1012.27
2017-10-24T22:23:53.461Z,1012.18
2017-10-24T22:33:51.233Z,1012.01
2017-10-24T22:43:51.170Z,1012.02
2017-10-24T22:53:51.240Z,1012.09
2017-10-24T23:03:51.213Z,1012.05
2017-10-24T23:13:51.280Z,1012.11
2017-10-24T23:23:51.315Z,1012.09
2017-10-24T23:33:51.305Z,1012.15
2017-10-24T23:43:51.317Z,1012.21
2017-10-24T23:53:51.583Z,1012.22
